Terminal Aerodrome Forecast
Issued by NWS

Home | Current Version | Previous Version | Text Only | Print | Product List | Glossary On
Versions: 1 2 3 4 5 6 7 8 9 10 11 12 13 14 15 16
000
FTUS42 TJSJ 301203 AAA
TAFKPK
TAF AMD
TKPK 301203Z 3012/0112 09012KT P6SM VCSH SCT020
     FM301400 07016KT P6SM VCSH SCT020
     FM302300 07012KT P6SM VCSH SCT020
      AMD NOT SKED 0102/0111=

USA.gov is the U.S. government's official web portal to all federal, state and local government web resources and services.